Terminal Aerodrome Forecast
Issued by NWS St Louis, MO

Home | Current Version | Previous Version | Text Only | Print | Product List | Glossary On
Versions: 1 2 3 4 5 6 7 8 9 10 11 12 13 14 15 16 17 18 19
540
FTUS43 KLSX 161139
TAFCOU
TAF
KCOU 161139Z 1612/1712 34015G22KT P6SM OVC020
     FM161400 34013KT P6SM OVC050
     FM161700 35011KT P6SM SCT250
     FM170000 04007KT P6SM FEW250
     FM171000 14006KT P6SM BKN200=

USA.gov is the U.S. government's official web portal to all federal, state and local government web resources and services.